Preston, MN

12:55 AM CDT on April 25, 2017 (GMT -0500)
Preston

Weather History for KFKA - January, 2013

Change the Weather History Date:

Tuesday, January 15, 2013

  Actual Average (KRST) Record (KRST)
Temperature  
Mean Temperature 20 °F -  
Max Temperature 29 °F 20 °F 50 °F (1914)
Min Temperature 11 °F 3 °F -36 °F (1888)
Degree Days  
Heating Degree Days 45    
Moisture  
Dew Point 13 °F    
Average Humidity 73    
Maximum Humidity 87    
Minimum Humidity 55    
Precipitation  
Precipitation 0.00 in - - ()
Sea Level Pressure  
Sea Level Pressure 30.18 in    
Wind  
Wind Speed 9 mph (SSW)    
Max Wind Speed 16 mph    
Max Gust Speed 23 mph    
Visibility 10 miles    
Events      
Averages and records for this station are not official NWS values.
T = Trace of Precipitation, MM = Missing Value Source: NWS Daily Summary

Daily Weather History Graph

Daily Weather History Graph

Search for Another Location

Airport or City:

Trip Planner

Search our weather history database for the weather conditions in past years. The results will help you decide how hot, cold, wet, or windy it might be!

Date:

Astronomy

Jan. 15, 2013 Rise Set
Actual Time 7:39 AM CST 4:57 PM CST
Civil Twilight 7:07 AM CST 5:29 PM CST
Nautical Twilight 6:31 AM CST 6:05 PM CST
Astronomical Twilight 5:57 AM CST 6:39 PM CST
Moon 9:35 AM CST (1/15) 9:59 PM CST (1/15)
Length of Visible Light 10h 22m
Length of Day
9h 18m
Waxing Crescent, 19% of the Moon is Illuminated
Jan 15
Waxing Crescent
Jan 18
First Quarter
Jan 26
Full
Feb 3
Last Quarter
Feb 10
New

Hourly Weather History & Observations

Time (CST) Temp. Windchill Dew Point Humidity Pressure Visibility Wind Dir Wind Speed Gust Speed Precip Events Conditions
12:10 AM 11.8 °F 1.3 °F 8.6 °F 87% 30.31 in 10.0 mi SSW 6.9 mph - N/A   Clear
12:29 AM 13.6 °F 2.5 °F 10.0 °F 86% 30.31 in 10.0 mi SSW 8.1 mph - N/A   Clear
12:50 AM 13.3 °F 3.0 °F 9.5 °F 85% 30.31 in 10.0 mi SSW 6.9 mph - N/A   Clear
1:29 AM 14.7 °F 4.8 °F 10.4 °F 83% 30.30 in 10.0 mi SSW 6.9 mph - N/A   Clear
1:49 AM 13.6 °F 4.6 °F 9.5 °F 84% 30.30 in 10.0 mi SSW 5.8 mph - N/A   Clear
2:09 AM 13.5 °F 2.2 °F 9.5 °F 84% 30.30 in 10.0 mi SSW 8.1 mph - N/A   Clear
2:29 AM 13.1 °F 2.8 °F 9.1 °F 84% 30.30 in 10.0 mi SSW 6.9 mph - N/A   Clear
2:50 AM 12.9 °F 3.8 °F 9.3 °F 86% 30.30 in 10.0 mi SSW 5.8 mph - N/A   Clear
3:10 AM 13.6 °F 2.5 °F 9.5 °F 84% 30.29 in 10.0 mi SSW 8.1 mph - N/A   Clear
3:29 AM 13.6 °F 2.5 °F 9.5 °F 84% 30.28 in 10.0 mi SSW 8.1 mph - N/A   Clear
3:50 AM 13.1 °F 2.8 °F 9.3 °F 85% 30.28 in 10.0 mi SSW 6.9 mph - N/A   Clear
4:09 AM 13.8 °F 3.7 °F 9.7 °F 84% 30.28 in 10.0 mi SSW 6.9 mph - N/A   Clear
4:30 AM 13.1 °F 1.8 °F 9.1 °F 84% 30.27 in 10.0 mi SSW 8.1 mph - N/A   Clear
4:49 AM 13.1 °F 1.8 °F 9.3 °F 85% 30.26 in 10.0 mi SSW 8.1 mph - N/A   Clear
5:10 AM 14.2 °F 4.1 °F 9.5 °F 82% 30.26 in 10.0 mi SSW 6.9 mph - N/A   Clear
5:30 AM 14.4 °F 3.3 °F 9.3 °F 80% 30.26 in 10.0 mi SSW 8.1 mph - N/A   Clear
5:50 AM 14.0 °F 2.9 °F 9.3 °F 82% 30.26 in 10.0 mi SSW 8.1 mph - N/A   Clear
6:10 AM 14.2 °F 4.1 °F 9.0 °F 80% 30.26 in 10.0 mi SW 6.9 mph - N/A   Clear
6:29 AM 14.0 °F 2.9 °F 8.8 °F 80% 30.26 in 10.0 mi SW 8.1 mph - N/A   Clear
6:50 AM 13.8 °F 2.7 °F 8.6 °F 80% 30.26 in 10.0 mi SSW 8.1 mph - N/A   Clear
7:10 AM 14.0 °F 2.0 °F 8.6 °F 79% 30.26 in 10.0 mi SW 9.2 mph - N/A   Clear
7:29 AM 14.0 °F 2.0 °F 8.6 °F 79% 30.26 in 10.0 mi SW 9.2 mph - N/A   Clear
7:50 AM 13.5 °F 2.2 °F 8.4 °F 80% 30.26 in 10.0 mi SSW 8.1 mph - N/A   Clear
8:10 AM 13.1 °F 1.8 °F 8.4 °F 82% 30.26 in 10.0 mi SSW 8.1 mph - N/A   Clear
8:29 AM 14.0 °F 2.9 °F 9.1 °F 81% 30.26 in 10.0 mi SSW 8.1 mph - N/A   Clear
8:50 AM 15.3 °F 4.4 °F 9.5 °F 78% 30.26 in 10.0 mi SSW 8.1 mph - N/A   Clear
9:10 AM 16.2 °F 4.7 °F 10.2 °F 77% 30.25 in 10.0 mi SSW 9.2 mph - N/A   Clear
9:30 AM 17.4 °F 5.4 °F 10.9 °F 76% 30.25 in 10.0 mi SSW 10.4 mph - N/A   Clear
9:49 AM 18.5 °F 6.1 °F 12.0 °F 76% 30.25 in 10.0 mi SSW 11.5 mph - N/A   Clear
10:10 AM 19.8 °F 7.1 °F 12.6 °F 74% 30.25 in 10.0 mi SSW 12.7 mph - N/A   Clear
10:30 AM 20.8 °F 9.0 °F 13.1 °F 72% 30.25 in 10.0 mi SSW 11.5 mph - N/A   Clear
10:50 AM 21.7 °F 10.8 °F 13.8 °F 72% 30.25 in 10.0 mi SSW 10.4 mph - N/A   Clear
11:10 AM 23.0 °F 11.7 °F 14.4 °F 70% 30.23 in 10.0 mi SSW 11.5 mph - N/A   Clear
11:30 AM 24.3 °F 13.9 °F 15.3 °F 69% 30.22 in 10.0 mi SW 10.4 mph - N/A   Clear
11:50 AM 25.5 °F 14.9 °F 15.8 °F 67% 30.21 in 10.0 mi SW 11.5 mph - N/A   Clear
12:10 PM 26.4 °F 16.6 °F 15.8 °F 64% 30.20 in 10.0 mi SW 10.4 mph - N/A   Clear
12:30 PM 27.0 °F 16.1 °F 16.2 °F 64% 30.20 in 10.0 mi SW 12.7 mph 16.1 mph N/A   Clear
12:49 PM 27.9 °F 16.8 °F 16.5 °F 62% 30.19 in 10.0 mi SW 13.8 mph - N/A   Clear
1:10 PM 28.2 °F 17.7 °F 16.7 °F 62% 30.17 in 10.0 mi SSW 12.7 mph - N/A   Clear
1:29 PM 28.8 °F 17.5 °F 16.5 °F 60% 30.16 in 10.0 mi SW 15.0 mph 21.9 mph N/A   Clear
1:50 PM 29.3 °F 19.1 °F 16.5 °F 59% 30.16 in 10.0 mi SW 12.7 mph 18.4 mph N/A   Clear
2:09 PM 29.7 °F 19.6 °F 16.7 °F 59% 30.15 in 10.0 mi SW 12.7 mph 16.1 mph N/A   Clear
2:30 PM 29.3 °F 19.6 °F 16.3 °F 58% 30.15 in 10.0 mi SSW 11.5 mph 18.4 mph N/A   Clear
2:50 PM 29.7 °F 21.3 °F 15.8 °F 56% 30.15 in 10.0 mi SSW 9.2 mph 20.7 mph N/A   Clear
3:30 PM 29.5 °F 18.0 °F 15.3 °F 55% 30.14 in 10.0 mi SSW 16.1 mph - N/A   Scattered Clouds
3:50 PM 29.3 °F 19.1 °F 15.3 °F 56% 30.14 in 10.0 mi SW 12.7 mph 19.6 mph N/A   Clear
4:30 PM 28.4 °F 18.5 °F 15.4 °F 58% 30.12 in 10.0 mi SSW 11.5 mph 18.4 mph N/A   Clear
4:50 PM 27.3 °F 16.1 °F 15.4 °F 61% 30.11 in 10.0 mi SSW 13.8 mph - N/A   Clear
5:10 PM 26.6 °F 15.2 °F 15.4 °F 63% 30.11 in 10.0 mi SSW 13.8 mph 19.6 mph N/A   Clear
5:30 PM 25.5 °F 14.9 °F 15.6 °F 66% 30.10 in 10.0 mi South 11.5 mph - N/A   Clear
5:50 PM 25.2 °F 13.9 °F 15.4 °F 67% 30.10 in 10.0 mi SSW 12.7 mph 18.4 mph N/A   Clear
6:10 PM 24.6 °F 13.2 °F 15.4 °F 68% 30.09 in 10.0 mi South 12.7 mph - N/A   Clear
6:30 PM 23.9 °F 12.3 °F 15.4 °F 70% 30.09 in 10.0 mi South 12.7 mph - N/A   Clear
6:49 PM 23.5 °F 11.8 °F 15.4 °F 71% 30.08 in 10.0 mi SSW 12.7 mph - N/A   Clear
7:10 PM 23.5 °F 10.8 °F 15.4 °F 71% 30.07 in 10.0 mi SSW 15.0 mph 20.7 mph N/A   Clear
7:30 PM 23.4 °F 11.1 °F 15.4 °F 72% 30.07 in 10.0 mi SSW 13.8 mph 19.6 mph N/A   Clear
7:49 PM 23.5 °F 11.8 °F 15.1 °F 70% 30.07 in 10.0 mi SSW 12.7 mph - N/A   Clear
8:10 PM 23.0 °F 10.6 °F 14.9 °F 71% 30.04 in 10.0 mi SSW 13.8 mph - N/A   Clear
8:30 PM 22.6 °F 10.1 °F 14.9 °F 72% 30.03 in 10.0 mi SSW 13.8 mph 23.0 mph N/A   Clear
8:49 PM 22.5 °F 9.9 °F 14.9 °F 73% 30.03 in 10.0 mi SSW 13.8 mph 20.7 mph N/A   Clear
9:10 PM 22.6 °F 10.1 °F 14.4 °F 71% 30.02 in 10.0 mi SSW 13.8 mph 18.4 mph N/A   Clear
9:30 PM 22.8 °F 10.9 °F 14.0 °F 69% 30.01 in 10.0 mi SSW 12.7 mph 19.6 mph N/A   Clear
9:49 PM 22.1 °F 8.5 °F 14.0 °F 71% 30.00 in 10.0 mi SSW 16.1 mph - N/A   Clear
10:10 PM 22.1 °F 8.9 °F 14.0 °F 71% 29.98 in 10.0 mi SSW 15.0 mph 20.7 mph N/A   Clear
10:29 PM 21.7 °F 11.5 °F 13.8 °F 72% 29.98 in 10.0 mi SSW 9.2 mph - N/A   Clear
10:50 PM 20.7 °F 9.5 °F 13.8 °F 75% 29.96 in 10.0 mi SSW 10.4 mph - N/A   Clear
11:10 PM 21.0 °F 8.1 °F 13.8 °F 74% 29.94 in 10.0 mi SSW 13.8 mph 19.6 mph N/A   Clear
11:29 PM 20.8 °F 7.9 °F 13.5 °F 73% 29.94 in 10.0 mi SSW 13.8 mph 19.6 mph N/A   Clear